Time;durP1;ratioP1;P1;durP2;ratioP2;P2;SDS_P1;SDS_P2;PMS_P1;PMS_P2;Temp;Humidity;BMP_temperature;BMP_pressure;BME280_temperature;BME280_humidity;BME280_pressure;Samples;Min_cycle;Max_cycle;Signal;HPM_P1;HPM_P2
2023/01/18 00:02:49;;;;;;;41.38;13.30;;;;;;;21.45;56.28;97395.16;20927309;28;20083;-86
2023/01/18 00:12:49;;;;;;;33.88;12.05;;;;;;;21.42;56.57;97363.94;20922733;28;20490;-84
2023/01/18 00:22:51;;;;;;;33.92;12.40;;;;;;;21.43;56.17;97332.19;20936366;28;20040;-86
2023/01/18 00:32:53;;;;;;;29.58;11.48;;;;;;;21.40;56.08;97361.50;20933087;28;20057;-86
2023/01/18 00:53:14;;;;;;;27.02;10.63;;;;;;;21.34;56.15;97486.00;20938031;28;20041;-87
2023/01/18 01:03:15;;;;;;;28.50;10.00;;;;;;;21.33;56.26;97489.63;20925766;28;20094;-87
2023/01/18 01:33:59;;;;;;;23.42;9.57;;;;;;;21.28;56.33;97434.91;20945620;28;20816;-88
2023/01/18 01:44:23;;;;;;;22.33;8.82;;;;;;;21.29;56.08;97485.75;20937599;28;20155;-88
2023/01/18 01:54:43;;;;;;;18.23;7.18;;;;;;;21.25;56.32;97471.31;20940325;28;20037;-86
2023/01/18 02:04:45;;;;;;;21.48;7.90;;;;;;;21.23;56.18;97491.78;20925909;28;20040;-85
2023/01/18 02:14:46;;;;;;;16.53;7.33;;;;;;;21.22;56.39;97500.66;20916811;28;20060;-85
2023/01/18 02:25:17;;;;;;;16.05;7.15;;;;;;;21.18;56.35;97531.81;20924648;28;20043;-87
2023/01/18 02:35:51;;;;;;;17.65;7.32;;;;;;;21.19;56.24;97532.63;20925630;27;20101;-85
2023/01/18 02:56:15;;;;;;;18.67;7.40;;;;;;;21.15;56.20;97532.16;20934828;28;20053;-86
2023/01/18 03:06:18;;;;;;;12.68;5.85;;;;;;;21.13;56.38;97512.31;20935486;28;20062;-86
2023/01/18 03:16:26;;;;;;;15.52;6.45;;;;;;;21.11;55.95;97515.16;20935107;28;20041;-86
2023/01/18 03:26:27;;;;;;;15.35;6.13;;;;;;;21.09;56.02;97506.63;20936699;28;20068;-88
2023/01/18 03:36:35;;;;;;;14.43;5.53;;;;;;;21.08;56.20;97510.25;20941981;28;20071;-87
2023/01/18 03:46:38;;;;;;;14.02;5.57;;;;;;;21.08;56.08;97478.66;20918636;28;20283;-88
2023/01/18 03:56:44;;;;;;;;;;;;;;;21.03;56.23;97492.41;20936491;28;21806;-86
2023/01/18 04:06:45;;;;;;;11.73;5.40;;;;;;;21.02;56.31;97511.81;20925547;28;20455;-86
2023/01/18 04:16:46;;;;;;;13.95;5.32;;;;;;;21.00;56.13;97487.53;20928236;28;20045;-86
2023/01/18 04:26:47;;;;;;;11.40;5.20;;;;;;;21.01;56.11;97483.09;20927954;28;20053;-84
2023/01/18 04:36:48;;;;;;;13.15;5.35;;;;;;;21.00;56.03;97508.56;20923618;28;20049;-87
2023/01/18 04:46:49;;;;;;;12.25;4.63;;;;;;;21.00;56.15;97537.50;20926832;28;20418;-85
2023/01/18 04:56:50;;;;;;;8.55;4.20;;;;;;;21.02;56.17;97532.88;20911642;28;20059;-89
2023/01/18 05:06:52;;;;;;;9.70;4.30;;;;;;;21.05;55.81;97535.13;20933702;28;20128;-87
2023/01/18 05:16:52;;;;;;;10.35;4.25;;;;;;;21.11;55.56;97580.91;20889651;28;20121;-88
2023/01/18 05:26:53;;;;;;;8.57;3.92;;;;;;;21.15;56.17;97597.16;20906245;28;20074;-87
2023/01/18 05:36:53;;;;;;;11.52;4.00;;;;;;;21.28;56.88;97613.06;20913179;28;20044;-85
2023/01/18 05:46:54;;;;;;;17.70;4.95;;;;;;;21.37;56.93;97585.66;20902471;28;20122;-85
2023/01/18 05:56:55;;;;;;;14.13;4.18;;;;;;;21.42;56.00;97580.63;20910581;28;20067;-85
2023/01/18 06:06:55;;;;;;;22.55;4.18;;;;;;;21.45;55.20;97555.72;20916401;28;20045;-81
2023/01/18 06:16:56;;;;;;;9.05;2.95;;;;;;;21.46;53.04;97609.19;20913381;28;20053;-80
2023/01/18 06:26:57;;;;;;;11.20;3.33;;;;;;;21.55;54.95;97600.16;20913334;28;20484;-85
2023/01/18 06:36:58;;;;;;;9.02;3.05;;;;;;;21.64;56.09;97624.56;20920269;28;20051;-81
2023/01/18 06:46:58;;;;;;;7.15;2.60;;;;;;;21.62;53.52;97532.63;20905762;28;20049;-80
2023/01/18 06:56:59;;;;;;;6.10;2.85;;;;;;;21.70;54.51;97543.00;20911824;28;20041;-82
2023/01/18 07:06:59;;;;;;;6.72;2.70;;;;;;;21.75;54.42;97645.97;20910161;28;20047;-80
2023/01/18 07:17:00;;;;;;;9.43;2.85;;;;;;;21.78;53.86;97641.31;20923699;28;20052;-80
2023/01/18 07:27:04;;;;;;;8.55;2.70;;;;;;;21.79;54.15;97696.44;20916919;28;20407;-80
2023/01/18 07:37:05;;;;;;;5.38;2.60;;;;;;;21.82;53.65;97711.06;20922542;28;20052;-80
2023/01/18 07:47:06;;;;;;;7.30;2.65;;;;;;;21.83;53.60;97774.06;20908994;28;20569;-80
2023/01/18 07:57:08;;;;;;;5.20;2.17;;;;;;;21.85;53.52;97777.34;20893402;28;20067;-80
2023/01/18 08:07:08;;;;;;;4.30;2.10;;;;;;;21.91;53.84;97794.25;20913776;28;20043;-81
2023/01/18 08:17:08;;;;;;;4.50;1.98;;;;;;;21.95;53.68;97831.53;20908648;28;20036;-81
2023/01/18 08:27:09;;;;;;;6.18;2.50;;;;;;;21.98;53.65;97854.91;20902902;28;20043;-80
2023/01/18 08:37:10;;;;;;;5.15;1.90;;;;;;;22.01;53.12;97878.25;20910098;28;20511;-80
2023/01/18 08:47:11;;;;;;;4.28;2.10;;;;;;;22.05;53.15;97884.78;20908831;28;20041;-79
2023/01/18 08:57:12;;;;;;;3.63;1.77;;;;;;;22.09;52.94;97922.13;20890061;28;20110;-81
2023/01/18 09:07:13;;;;;;;3.50;1.70;;;;;;;22.08;52.40;97942.38;20909359;28;20052;-80
2023/01/18 09:17:14;;;;;;;5.30;1.83;;;;;;;22.09;52.38;97951.91;20910299;28;20074;-80
2023/01/18 09:27:15;;;;;;;5.30;2.20;;;;;;;22.08;52.09;97997.69;20919666;28;20430;-82
2023/01/18 09:37:17;;;;;;;5.28;2.55;;;;;;;22.05;52.05;98043.69;20906357;28;20037;-81
2023/01/18 09:47:36;;;;;;;4.38;2.30;;;;;;;22.01;51.93;98084.59;20905334;28;20048;-81
2023/01/18 09:57:49;;;;;;;5.90;2.45;;;;;;;21.99;52.04;98083.94;20886845;28;20069;-81
2023/01/18 10:08:01;;;;;;;14.85;3.20;;;;;;;21.94;51.84;98098.69;20916989;28;20064;-83
2023/01/18 10:18:02;;;;;;;7.32;3.40;;;;;;;21.96;51.63;98121.22;20913098;28;20052;-81
2023/01/18 10:28:24;;;;;;;8.05;3.35;;;;;;;21.94;51.35;98162.72;20903253;28;20049;-82
2023/01/18 10:38:27;;;;;;;6.43;3.70;;;;;;;21.93;51.50;98150.53;20924145;28;20040;-82
2023/01/18 10:48:31;;;;;;;4.85;3.10;;;;;;;21.95;52.02;98179.34;20914807;28;20280;-82
2023/01/18 10:58:53;;;;;;;5.95;4.05;;;;;;;21.94;51.82;98207.50;20905982;28;20064;-83
2023/01/18 11:08:54;;;;;;;6.90;4.35;;;;;;;21.95;51.54;98218.84;20917904;28;20112;-83
2023/01/18 11:18:58;;;;;;;6.50;3.92;;;;;;;21.93;51.74;98221.69;20907596;28;20083;-84
2023/01/18 11:29:03;;;;;;;3.95;3.30;;;;;;;21.92;51.38;98259.56;20926676;28;20040;-83
2023/01/18 11:39:25;;;;;;;7.43;4.20;;;;;;;21.94;51.19;98277.84;20929639;28;20123;-86
2023/01/18 11:49:36;;;;;;;8.50;4.82;;;;;;;21.95;51.18;98298.75;20934915;28;20064;-85
2023/01/18 11:59:42;;;;;;;9.30;5.40;;;;;;;22.05;51.62;98315.13;20916451;28;20571;-85
2023/01/18 12:09:55;;;;;;;9.10;5.95;;;;;;;22.17;52.07;98341.13;20903471;28;20979;-82
2023/01/18 12:20:22;;;;;;;12.68;5.50;;;;;;;22.29;52.51;98352.03;20926107;28;20048;-88
2023/01/18 12:30:33;;;;;;;10.57;5.70;;;;;;;22.33;52.55;98369.19;20912235;28;20060;-87
2023/01/18 12:40:37;;;;;;;11.15;5.43;;;;;;;22.45;53.01;98388.91;20903242;28;20040;-89
2023/01/18 12:50:41;;;;;;;11.50;5.50;;;;;;;22.49;52.62;98406.00;20903189;28;20099;-90
2023/01/18 13:00:48;;;;;;;8.25;5.20;;;;;;;22.49;51.92;98418.38;20922335;28;20058;-91
2023/01/18 13:10:49;;;;;;;6.82;4.57;;;;;;;22.51;52.04;98440.13;20888032;28;20048;-86
2023/01/18 13:21:28;;;;;;;7.77;5.00;;;;;;;22.50;52.66;98456.94;20915897;28;20086;-86
2023/01/18 13:31:30;;;;;;;9.43;4.60;;;;;;;22.43;51.85;98499.00;20905897;28;20095;-81
2023/01/18 13:41:31;;;;;;;8.10;4.70;;;;;;;22.38;51.66;98501.34;20909996;28;20050;-82
2023/01/18 13:51:40;;;;;;;8.40;4.57;;;;;;;22.33;51.97;98487.81;20884640;28;20053;-82
2023/01/18 14:01:43;;;;;;;6.70;4.15;;;;;;;22.32;51.90;98494.91;20920656;28;20052;-82
2023/01/18 14:11:54;;;;;;;6.50;4.22;;;;;;;22.32;51.62;98523.09;20912157;28;20029;-88
2023/01/18 14:22:29;;;;;;;6.00;4.03;;;;;;;22.28;51.67;98538.44;20941403;28;20087;-87
2023/01/18 14:32:42;;;;;;;11.32;4.07;;;;;;;22.24;50.98;98563.50;20883507;28;20041;-80
2023/01/18 14:42:55;;;;;;;6.70;4.22;;;;;;;22.21;51.59;98564.63;20883928;28;20040;-79
2023/01/18 14:52:59;;;;;;;;;;;;;;;22.18;51.19;98570.28;20881596;28;20055;-79
2023/01/18 15:03:00;;;;;;;6.45;3.72;;;;;;;22.17;51.50;98573.91;20903559;28;20112;-80
2023/01/18 15:13:01;;;;;;;6.25;3.80;;;;;;;22.16;51.96;98564.34;20916041;28;20109;-81
2023/01/18 15:23:04;;;;;;;5.65;3.65;;;;;;;22.14;51.91;98554.94;20910493;28;20309;-80
2023/01/18 15:33:04;;;;;;;;;;;;;;;22.10;52.17;98559.75;20916197;28;20069;-80
2023/01/18 15:43:23;;;;;;;5.50;3.10;;;;;;;22.10;52.02;98593.19;20901743;28;19931;-89
2023/01/18 15:53:28;;;;;;;4.05;2.65;;;;;;;22.05;52.33;98618.22;20886435;28;20067;-84
2023/01/18 16:03:52;;;;;;;7.53;3.25;;;;;;;22.02;52.29;98623.84;20857164;28;20079;-84
2023/01/18 16:13:59;;;;;;;6.32;3.08;;;;;;;22.00;52.51;98633.72;20866871;28;20079;-82
2023/01/18 16:23:59;;;;;;;5.90;3.30;;;;;;;21.99;52.25;98653.16;20857148;28;20470;-84
2023/01/18 16:34:00;;;;;;;5.57;3.42;;;;;;;21.97;52.32;98652.53;20872843;28;20060;-83
2023/01/18 16:44:03;;;;;;;4.93;3.33;;;;;;;21.95;52.11;98646.59;20885673;28;20045;-83
2023/01/18 16:54:05;;;;;;;7.28;3.67;;;;;;;21.86;50.04;98645.78;20804835;28;20056;-81
2023/01/18 17:04:08;;;;;;;6.07;3.27;;;;;;;21.85;51.59;98664.38;20795189;28;22021;-82
2023/01/18 17:14:08;;;;;;;6.13;3.72;;;;;;;21.77;50.90;98659.13;20802892;28;20079;-81
2023/01/18 17:24:10;;;;;;;4.72;3.03;;;;;;;21.82;51.91;98683.97;20800206;28;20060;-83
2023/01/18 17:34:16;;;;;;;5.53;3.15;;;;;;;21.83;52.26;98703.25;20819863;28;20826;-82
2023/01/18 17:44:17;;;;;;;6.00;3.08;;;;;;;21.80;52.51;98720.22;20844982;28;20048;-82
2023/01/18 17:54:18;;;;;;;4.95;2.67;;;;;;;21.82;52.76;98757.72;20919707;28;20518;-82
2023/01/18 18:04:18;;;;;;;5.50;3.00;;;;;;;21.82;52.65;98770.09;20933446;28;20040;-82
2023/01/18 18:14:22;;;;;;;5.55;3.08;;;;;;;21.80;52.39;98782.59;20934964;28;20050;-81
2023/01/18 18:24:24;;;;;;;5.20;3.10;;;;;;;21.76;52.55;98774.19;20930753;28;20048;-87
2023/01/18 18:34:25;;;;;;;7.53;3.30;;;;;;;21.77;53.03;98773.22;20935518;28;20161;-87
2023/01/18 18:44:26;;;;;;;6.53;3.50;;;;;;;21.78;53.08;98768.78;20953781;28;20059;-85
2023/01/18 18:54:26;;;;;;;6.72;3.40;;;;;;;21.77;52.79;98757.41;20950037;28;20044;-86
2023/01/18 19:04:39;;;;;;;5.75;3.50;;;;;;;21.76;52.81;98755.75;20951808;28;20032;-86
2023/01/18 19:14:43;;;;;;;7.32;3.40;;;;;;;21.77;53.13;98757.41;20927141;28;20041;-82
2023/01/18 19:24:44;;;;;;;7.57;4.10;;;;;;;21.78;53.93;98753.78;20928061;28;20064;-81
2023/01/18 19:34:45;;;;;;;7.07;4.23;;;;;;;21.76;54.91;98755.75;20910454;28;20040;-82
2023/01/18 19:44:46;;;;;;;10.70;5.03;;;;;;;21.78;54.79;98766.97;20924450;28;20285;-84
2023/01/18 19:54:48;;;;;;;42.83;14.30;;;;;;;21.58;51.47;98761.16;20927528;28;20066;-85
2023/01/18 20:04:50;;;;;;;35.58;12.98;;;;;;;21.55;53.20;98753.56;20919680;28;20037;-85
2023/01/18 20:14:54;;;;;;;32.65;11.45;;;;;;;21.57;53.31;98762.97;20934286;28;20033;-82
2023/01/18 20:24:55;;;;;;;25.80;11.10;;;;;;;21.55;53.40;98758.81;20884405;28;20033;-84
2023/01/18 20:34:55;;;;;;;24.20;10.27;;;;;;;21.55;53.17;98770.16;20920236;28;20491;-84
2023/01/18 20:44:59;;;;;;;30.15;10.15;;;;;;;21.57;53.37;98768.22;20917787;28;20667;-84
2023/01/18 20:55:00;;;;;;;22.65;9.52;;;;;;;21.56;53.50;98768.38;20919249;28;20033;-84
2023/01/18 21:05:02;;;;;;;17.60;8.82;;;;;;;21.54;53.41;98770.34;20907855;28;20043;-85
2023/01/18 21:15:06;;;;;;;26.35;9.65;;;;;;;21.56;53.46;98763.09;20934610;28;20106;-85
2023/01/18 21:25:07;;;;;;;19.50;8.52;;;;;;;21.58;53.43;98732.19;20908793;28;20036;-84
2023/01/18 21:35:14;;;;;;;17.10;7.93;;;;;;;21.59;53.67;98703.06;20923725;28;20067;-84
2023/01/18 21:55:35;;;;;;;17.30;7.07;;;;;;;21.57;53.50;98720.00;20911527;28;20037;-83
2023/01/18 22:05:36;;;;;;;15.37;6.93;;;;;;;21.55;53.77;98743.00;20918754;28;20090;-84
2023/01/18 22:15:36;;;;;;;12.75;6.30;;;;;;;21.54;54.27;98757.97;20916060;28;20044;-86
2023/01/18 22:25:37;;;;;;;16.13;6.30;;;;;;;21.58;53.83;98775.16;20925277;28;20116;-86
2023/01/18 22:35:37;;;;;;;13.52;5.85;;;;;;;21.58;54.14;98780.44;20926484;28;20052;-86
2023/01/18 22:45:38;;;;;;;13.23;6.03;;;;;;;21.58;54.34;98747.97;20946854;28;20044;-86
2023/01/18 22:55:38;;;;;;;10.48;5.55;;;;;;;21.52;54.36;98730.16;20933599;28;20052;-85
2023/01/18 23:05:39;;;;;;;8.73;5.20;;;;;;;21.54;54.11;98744.00;20933684;28;20041;-85
2023/01/18 23:26:02;;;;;;;11.68;5.80;;;;;;;21.49;54.08;98715.50;20919139;28;20033;-86
2023/01/18 23:36:04;;;;;;;9.48;5.10;;;;;;;21.47;54.26;98680.63;20918184;28;20122;-88
2023/01/18 23:56:24;;;;;;;9.98;4.50;;;;;;;21.46;54.10;98660.53;20911869;28;20056;-90
